sensor_id;sensor_type;location;lat;lon;timestamp;pressure;altitude;pressure_sealevel;temperature;humidity
39887;BME280;25559;44.738;20.980;2022-11-20T00:01:06;99954.88;;;10.65;100.00
39887;BME280;25559;44.738;20.980;2022-11-20T00:03:34;99937.94;;;10.52;100.00
39887;BME280;25559;44.738;20.980;2022-11-20T00:06:01;99932.34;;;10.32;100.00
39887;BME280;25559;44.738;20.980;2022-11-20T00:08:28;99928.38;;;10.18;100.00
39887;BME280;25559;44.738;20.980;2022-11-20T00:10:55;99937.53;;;9.95;100.00
39887;BME280;25559;44.738;20.980;2022-11-20T00:13:22;99923.31;;;9.75;100.00
39887;BME280;25559;44.738;20.980;2022-11-20T00:15:56;99932.28;;;9.59;100.00
39887;BME280;25559;44.738;20.980;2022-11-20T00:18:25;99907.72;;;9.38;100.00
39887;BME280;25559;44.738;20.980;2022-11-20T00:20:52;99900.03;;;9.35;100.00
39887;BME280;25559;44.738;20.980;2022-11-20T00:23:19;99881.22;;;9.28;100.00
39887;BME280;25559;44.738;20.980;2022-11-20T00:25:46;99875.22;;;9.26;100.00
39887;BME280;25559;44.738;20.980;2022-11-20T00:28:13;99877.75;;;9.28;100.00
39887;BME280;25559;44.738;20.980;2022-11-20T00:30:40;99887.38;;;9.22;100.00
39887;BME280;25559;44.738;20.980;2022-11-20T00:33:07;99873.47;;;9.28;100.00
39887;BME280;25559;44.738;20.980;2022-11-20T00:35:35;99876.00;;;9.70;100.00
39887;BME280;25559;44.738;20.980;2022-11-20T00:38:02;99889.00;;;9.67;100.00
39887;BME280;25559;44.738;20.980;2022-11-20T00:40:29;99883.75;;;9.70;100.00
39887;BME280;25559;44.738;20.980;2022-11-20T00:42:56;99895.69;;;9.76;100.00
39887;BME280;25559;44.738;20.980;2022-11-20T00:45:23;99903.28;;;9.84;100.00
39887;BME280;25559;44.738;20.980;2022-11-20T00:47:49;99936.00;;;9.86;100.00
39887;BME280;25559;44.738;20.980;2022-11-20T00:50:16;99954.94;;;9.87;100.00
39887;BME280;25559;44.738;20.980;2022-11-20T00:52:45;99967.16;;;9.82;100.00
39887;BME280;25559;44.738;20.980;2022-11-20T00:55:11;99948.91;;;9.88;100.00
39887;BME280;25559;44.738;20.980;2022-11-20T00:57:38;99951.38;;;9.92;100.00
39887;BME280;25559;44.738;20.980;2022-11-20T01:00:06;99935.69;;;10.00;100.00
39887;BME280;25559;44.738;20.980;2022-11-20T01:02:33;99930.50;;;10.00;100.00
39887;BME280;25559;44.738;20.980;2022-11-20T01:05:00;99914.09;;;10.01;100.00
39887;BME280;25559;44.738;20.980;2022-11-20T01:07:27;99883.69;;;10.09;100.00
39887;BME280;25559;44.738;20.980;2022-11-20T01:09:55;99847.34;;;10.14;100.00
39887;BME280;25559;44.738;20.980;2022-11-20T01:12:22;99852.56;;;10.12;100.00
39887;BME280;25559;44.738;20.980;2022-11-20T01:14:49;99824.06;;;10.12;100.00
39887;BME280;25559;44.738;20.980;2022-11-20T01:17:16;99757.88;;;10.04;100.00
39887;BME280;25559;44.738;20.980;2022-11-20T01:19:43;99753.63;;;10.01;100.00
39887;BME280;25559;44.738;20.980;2022-11-20T01:22:10;99778.69;;;10.01;100.00
39887;BME280;25559;44.738;20.980;2022-11-20T01:24:37;99757.13;;;9.99;100.00
39887;BME280;25559;44.738;20.980;2022-11-20T01:27:05;99761.44;;;10.00;100.00
39887;BME280;25559;44.738;20.980;2022-11-20T01:29:32;99749.16;;;10.06;100.00
39887;BME280;25559;44.738;20.980;2022-11-20T01:31:59;99749.25;;;10.03;100.00
39887;BME280;25559;44.738;20.980;2022-11-20T01:34:26;99746.50;;;10.09;100.00
39887;BME280;25559;44.738;20.980;2022-11-20T01:36:53;99756.06;;;10.07;100.00
39887;BME280;25559;44.738;20.980;2022-11-20T01:39:21;99750.97;;;10.04;100.00
39887;BME280;25559;44.738;20.980;2022-11-20T01:41:49;99744.94;;;10.04;100.00
39887;BME280;25559;44.738;20.980;2022-11-20T01:44:57;99727.88;;;9.96;100.00
39887;BME280;25559;44.738;20.980;2022-11-20T01:47:31;99722.00;;;9.90;100.00
39887;BME280;25559;44.738;20.980;2022-11-20T01:50:10;99703.78;;;9.94;100.00
39887;BME280;25559;44.738;20.980;2022-11-20T01:52:42;99719.34;;;9.93;100.00
39887;BME280;25559;44.738;20.980;2022-11-20T01:55:15;99720.22;;;9.92;100.00
39887;BME280;25559;44.738;20.980;2022-11-20T01:57:45;99720.19;;;9.93;100.00
39887;BME280;25559;44.738;20.980;2022-11-20T02:00:17;99732.34;;;9.90;100.00
39887;BME280;25559;44.738;20.980;2022-11-20T02:02:49;99729.66;;;9.94;100.00
39887;BME280;25559;44.738;20.980;2022-11-20T02:05:22;99732.28;;;9.93;100.00
39887;BME280;25559;44.738;20.980;2022-11-20T02:07:52;99729.72;;;9.91;100.00
39887;BME280;25559;44.738;20.980;2022-11-20T02:10:21;99734.16;;;9.86;100.00
39887;BME280;25559;44.738;20.980;2022-11-20T02:12:48;99740.50;;;9.74;100.00
39887;BME280;25559;44.738;20.980;2022-11-20T02:15:34;99744.94;;;9.69;100.00
39887;BME280;25559;44.738;20.980;2022-11-20T02:18:01;99734.47;;;9.74;100.00
39887;BME280;25559;44.738;20.980;2022-11-20T02:20:28;99757.13;;;9.66;100.00
39887;BME280;25559;44.738;20.980;2022-11-20T02:22:57;99752.81;;;9.65;100.00
39887;BME280;25559;44.738;20.980;2022-11-20T02:25:28;99753.00;;;9.57;100.00
39887;BME280;25559;44.738;20.980;2022-11-20T02:27:56;99747.03;;;9.53;100.00
39887;BME280;25559;44.738;20.980;2022-11-20T02:30:23;99744.41;;;9.55;100.00
39887;BME280;25559;44.738;20.980;2022-11-20T02:32:50;99734.78;;;9.62;100.00
39887;BME280;25559;44.738;20.980;2022-11-20T02:35:42;99756.50;;;9.54;100.00
39887;BME280;25559;44.738;20.980;2022-11-20T02:38:09;99744.56;;;9.49;100.00
39887;BME280;25559;44.738;20.980;2022-11-20T02:40:38;99749.75;;;9.49;100.00
39887;BME280;25559;44.738;20.980;2022-11-20T02:43:05;99747.03;;;9.53;100.00
39887;BME280;25559;44.738;20.980;2022-11-20T02:45:32;99764.09;;;9.62;100.00
39887;BME280;25559;44.738;20.980;2022-11-20T02:47:59;99760.66;;;9.62;100.00
39887;BME280;25559;44.738;20.980;2022-11-20T02:50:26;99757.91;;;9.68;100.00
39887;BME280;25559;44.738;20.980;2022-11-20T02:52:53;99758.59;;;9.74;100.00
39887;BME280;25559;44.738;20.980;2022-11-20T02:55:20;99765.94;;;9.91;100.00
39887;BME280;25559;44.738;20.980;2022-11-20T02:57:48;99752.84;;;9.99;100.00
39887;BME280;25559;44.738;20.980;2022-11-20T03:00:16;99764.88;;;10.00;100.00
39887;BME280;25559;44.738;20.980;2022-11-20T03:02:43;99771.81;;;9.98;100.00
39887;BME280;25559;44.738;20.980;2022-11-20T03:05:09;99758.59;;;10.09;100.00
39887;BME280;25559;44.738;20.980;2022-11-20T03:07:36;99750.75;;;10.12;100.00
39887;BME280;25559;44.738;20.980;2022-11-20T03:10:04;99752.50;;;10.11;100.00
39887;BME280;25559;44.738;20.980;2022-11-20T03:12:31;99753.47;;;10.07;100.00
39887;BME280;25559;44.738;20.980;2022-11-20T03:15:00;99754.31;;;10.08;100.00
39887;BME280;25559;44.738;20.980;2022-11-20T03:17:27;99761.00;;;10.17;100.00
39887;BME280;25559;44.738;20.980;2022-11-20T03:19:54;99759.03;;;10.26;100.00
39887;BME280;25559;44.738;20.980;2022-11-20T03:22:21;99770.09;;;10.31;100.00
39887;BME280;25559;44.738;20.980;2022-11-20T03:24:48;99767.50;;;10.33;100.00
39887;BME280;25559;44.738;20.980;2022-11-20T03:27:15;99766.47;;;10.39;100.00
39887;BME280;25559;44.738;20.980;2022-11-20T03:29:42;99771.75;;;10.36;100.00
39887;BME280;25559;44.738;20.980;2022-11-20T03:32:10;99770.03;;;10.35;100.00
39887;BME280;25559;44.738;20.980;2022-11-20T03:34:37;99765.63;;;10.38;100.00
39887;BME280;25559;44.738;20.980;2022-11-20T03:37:04;99756.91;;;10.41;100.00
39887;BME280;25559;44.738;20.980;2022-11-20T03:39:31;99755.81;;;10.49;100.00
39887;BME280;25559;44.738;20.980;2022-11-20T03:41:58;99768.66;;;10.54;100.00
39887;BME280;25559;44.738;20.980;2022-11-20T03:44:25;99753.75;;;10.61;100.00
39887;BME280;25559;44.738;20.980;2022-11-20T03:46:51;99753.44;;;10.72;100.00
39887;BME280;25559;44.738;20.980;2022-11-20T03:49:20;99750.63;;;10.79;100.00
39887;BME280;25559;44.738;20.980;2022-11-20T03:51:47;99749.56;;;10.87;100.00
39887;BME280;25559;44.738;20.980;2022-11-20T03:54:13;99755.53;;;10.90;100.00
39887;BME280;25559;44.738;20.980;2022-11-20T03:56:40;99753.63;;;10.95;100.00
39887;BME280;25559;44.738;20.980;2022-11-20T03:59:09;99751.69;;;11.02;100.00
39887;BME280;25559;44.738;20.980;2022-11-20T04:01:36;99758.44;;;11.08;100.00
39887;BME280;25559;44.738;20.980;2022-11-20T04:04:04;99753.16;;;11.11;100.00
39887;BME280;25559;44.738;20.980;2022-11-20T04:06:34;99749.56;;;11.16;100.00
39887;BME280;25559;44.738;20.980;2022-11-20T04:09:01;99752.00;;;11.21;100.00
39887;BME280;25559;44.738;20.980;2022-11-20T04:11:29;99750.16;;;11.25;100.00
39887;BME280;25559;44.738;20.980;2022-11-20T04:13:58;99744.88;;;11.28;100.00
39887;BME280;25559;44.738;20.980;2022-11-20T04:16:28;99744.75;;;11.31;100.00
39887;BME280;25559;44.738;20.980;2022-11-20T04:18:56;99752.59;;;11.29;100.00
39887;BME280;25559;44.738;20.980;2022-11-20T04:21:24;99756.00;;;11.31;100.00
39887;BME280;25559;44.738;20.980;2022-11-20T04:23:53;99759.50;;;11.30;100.00
39887;BME280;25559;44.738;20.980;2022-11-20T04:26:21;99757.88;;;11.26;100.00
39887;BME280;25559;44.738;20.980;2022-11-20T04:28:48;99779.44;;;11.28;100.00
39887;BME280;25559;44.738;20.980;2022-11-20T04:31:17;99782.72;;;11.33;100.00
39887;BME280;25559;44.738;20.980;2022-11-20T04:33:44;99787.03;;;11.34;100.00
39887;BME280;25559;44.738;20.980;2022-11-20T04:36:13;99786.94;;;11.37;100.00
39887;BME280;25559;44.738;20.980;2022-11-20T04:38:41;99785.97;;;11.40;100.00
39887;BME280;25559;44.738;20.980;2022-11-20T04:41:13;99784.94;;;11.46;100.00
39887;BME280;25559;44.738;20.980;2022-11-20T04:43:41;99786.50;;;11.51;100.00
39887;BME280;25559;44.738;20.980;2022-11-20T04:46:08;99790.75;;;11.54;100.00
39887;BME280;25559;44.738;20.980;2022-11-20T04:48:35;99786.31;;;11.58;100.00
39887;BME280;25559;44.738;20.980;2022-11-20T04:51:02;99786.22;;;11.61;100.00
39887;BME280;25559;44.738;20.980;2022-11-20T04:53:30;99775.00;;;11.60;100.00
39887;BME280;25559;44.738;20.980;2022-11-20T04:55:59;99778.25;;;11.38;100.00
39887;BME280;25559;44.738;20.980;2022-11-20T04:58:28;99774.16;;;11.31;100.00
39887;BME280;25559;44.738;20.980;2022-11-20T05:01:00;99781.75;;;11.37;100.00
39887;BME280;25559;44.738;20.980;2022-11-20T05:03:27;99786.78;;;11.42;100.00
39887;BME280;25559;44.738;20.980;2022-11-20T05:05:54;99787.63;;;11.43;100.00
39887;BME280;25559;44.738;20.980;2022-11-20T05:08:21;99795.28;;;11.47;100.00
39887;BME280;25559;44.738;20.980;2022-11-20T05:10:48;99797.66;;;11.53;100.00
39887;BME280;25559;44.738;20.980;2022-11-20T05:13:15;99794.03;;;11.59;100.00
39887;BME280;25559;44.738;20.980;2022-11-20T05:15:43;99797.31;;;11.64;100.00
39887;BME280;25559;44.738;20.980;2022-11-20T05:18:10;99793.69;;;11.70;100.00
39887;BME280;25559;44.738;20.980;2022-11-20T05:20:37;99804.81;;;11.73;100.00
39887;BME280;25559;44.738;20.980;2022-11-20T05:23:04;99805.56;;;11.77;100.00
39887;BME280;25559;44.738;20.980;2022-11-20T05:25:30;99816.69;;;11.81;100.00
39887;BME280;25559;44.738;20.980;2022-11-20T05:27:57;99822.59;;;11.86;100.00
39887;BME280;25559;44.738;20.980;2022-11-20T05:30:24;99823.53;;;11.83;100.00
39887;BME280;25559;44.738;20.980;2022-11-20T05:32:52;99818.59;;;11.76;100.00
39887;BME280;25559;44.738;20.980;2022-11-20T05:35:19;99822.84;;;11.78;100.00
39887;BME280;25559;44.738;20.980;2022-11-20T05:37:46;99830.66;;;11.77;100.00
39887;BME280;25559;44.738;20.980;2022-11-20T05:40:13;99831.59;;;11.76;100.00
39887;BME280;25559;44.738;20.980;2022-11-20T05:42:40;99833.25;;;11.78;100.00
39887;BME280;25559;44.738;20.980;2022-11-20T05:45:09;99831.63;;;11.74;100.00
39887;BME280;25559;44.738;20.980;2022-11-20T05:47:36;99834.31;;;11.71;100.00
39887;BME280;25559;44.738;20.980;2022-11-20T05:50:05;99829.09;;;11.72;100.00
39887;BME280;25559;44.738;20.980;2022-11-20T05:52:32;99819.59;;;11.71;100.00
39887;BME280;25559;44.738;20.980;2022-11-20T05:54:59;99820.47;;;11.70;100.00
39887;BME280;25559;44.738;20.980;2022-11-20T05:57:26;99821.34;;;11.71;100.00
39887;BME280;25559;44.738;20.980;2022-11-20T05:59:53;99824.69;;;11.74;100.00
39887;BME280;25559;44.738;20.980;2022-11-20T06:02:19;99817.88;;;11.70;100.00
39887;BME280;25559;44.738;20.980;2022-11-20T06:04:46;99835.00;;;11.76;100.00
39887;BME280;25559;44.738;20.980;2022-11-20T06:07:15;99825.47;;;11.77;100.00
39887;BME280;25559;44.738;20.980;2022-11-20T06:09:42;99834.97;;;11.78;100.00
39887;BME280;25559;44.738;20.980;2022-11-20T06:12:09;99825.41;;;11.80;100.00
39887;BME280;25559;44.738;20.980;2022-11-20T06:14:36;99834.81;;;11.82;100.00
39887;BME280;25559;44.738;20.980;2022-11-20T06:17:02;99839.97;;;11.84;100.00
39887;BME280;25559;44.738;20.980;2022-11-20T06:19:29;99845.97;;;11.86;100.00
39887;BME280;25559;44.738;20.980;2022-11-20T06:21:56;99846.75;;;11.88;100.00
39887;BME280;25559;44.738;20.980;2022-11-20T06:24:24;99863.06;;;11.91;100.00
39887;BME280;25559;44.738;20.980;2022-11-20T06:26:52;99858.81;;;11.90;100.00
39887;BME280;25559;44.738;20.980;2022-11-20T06:29:18;99864.88;;;11.89;100.00
39887;BME280;25559;44.738;20.980;2022-11-20T06:31:45;99865.66;;;11.93;100.00
39887;BME280;25559;44.738;20.980;2022-11-20T06:34:12;99871.66;;;11.95;100.00
39887;BME280;25559;44.738;20.980;2022-11-20T06:36:39;99882.78;;;11.99;100.00
39887;BME280;25559;44.738;20.980;2022-11-20T06:39:06;99873.13;;;12.02;100.00
39887;BME280;25559;44.738;20.980;2022-11-20T06:41:34;99874.81;;;12.05;100.00
39887;BME280;25559;44.738;20.980;2022-11-20T06:44:03;99885.94;;;12.08;100.00
39887;BME280;25559;44.738;20.980;2022-11-20T06:46:30;99885.00;;;12.11;100.00
39887;BME280;25559;44.738;20.980;2022-11-20T06:48:57;99883.16;;;12.15;100.00
39887;BME280;25559;44.738;20.980;2022-11-20T06:51:24;99891.72;;;12.17;100.00
39887;BME280;25559;44.738;20.980;2022-11-20T06:53:51;99887.28;;;12.20;100.00
39887;BME280;25559;44.738;20.980;2022-11-20T06:56:18;99892.41;;;12.22;100.00
39887;BME280;25559;44.738;20.980;2022-11-20T06:58:46;99901.97;;;12.21;100.00
39887;BME280;25559;44.738;20.980;2022-11-20T07:01:14;99901.81;;;12.26;100.00
39887;BME280;25559;44.738;20.980;2022-11-20T07:03:42;99896.63;;;12.26;100.00
39887;BME280;25559;44.738;20.980;2022-11-20T07:06:10;99893.97;;;12.27;100.00
39887;BME280;25559;44.738;20.980;2022-11-20T07:08:37;99905.22;;;12.28;100.00
39887;BME280;25559;44.738;20.980;2022-11-20T07:11:05;99908.63;;;12.30;100.00
39887;BME280;25559;44.738;20.980;2022-11-20T07:13:32;99916.56;;;12.25;100.00
39887;BME280;25559;44.738;20.980;2022-11-20T07:16:03;99924.63;;;12.18;100.00
39887;BME280;25559;44.738;20.980;2022-11-20T07:18:30;99929.13;;;12.11;100.00
39887;BME280;25559;44.738;20.980;2022-11-20T07:21:00;99938.78;;;12.07;100.00
39887;BME280;25559;44.738;20.980;2022-11-20T07:23:27;99943.19;;;12.04;100.00
39887;BME280;25559;44.738;20.980;2022-11-20T07:25:54;99942.50;;;11.99;100.00
39887;BME280;25559;44.738;20.980;2022-11-20T07:28:21;99950.16;;;12.03;100.00
39887;BME280;25559;44.738;20.980;2022-11-20T07:30:50;99964.78;;;12.06;100.00
39887;BME280;25559;44.738;20.980;2022-11-20T07:33:18;99957.91;;;12.05;100.00
39887;BME280;25559;44.738;20.980;2022-11-20T07:35:45;99971.66;;;12.07;100.00
39887;BME280;25559;44.738;20.980;2022-11-20T07:38:12;99978.47;;;12.11;100.00
39887;BME280;25559;44.738;20.980;2022-11-20T07:40:39;99972.28;;;12.15;100.00
39887;BME280;25559;44.738;20.980;2022-11-20T07:43:06;99972.16;;;12.20;100.00
39887;BME280;25559;44.738;20.980;2022-11-20T07:45:33;99968.66;;;12.21;100.00
39887;BME280;25559;44.738;20.980;2022-11-20T07:48:00;99958.28;;;12.21;100.00
39887;BME280;25559;44.738;20.980;2022-11-20T07:50:28;99971.22;;;12.22;100.00
39887;BME280;25559;44.738;20.980;2022-11-20T07:53:00;99985.84;;;12.25;100.00
39887;BME280;25559;44.738;20.980;2022-11-20T07:55:28;99989.72;;;12.12;100.00
39887;BME280;25559;44.738;20.980;2022-11-20T07:57:55;99996.50;;;12.16;100.00
39887;BME280;25559;44.738;20.980;2022-11-20T08:00:22;100010.13;;;12.24;100.00
39887;BME280;25559;44.738;20.980;2022-11-20T08:02:49;100009.16;;;12.26;100.00
39887;BME280;25559;44.738;20.980;2022-11-20T08:05:16;100016.84;;;12.30;100.00
39887;BME280;25559;44.738;20.980;2022-11-20T08:07:45;100011.56;;;12.33;100.00
39887;BME280;25559;44.738;20.980;2022-11-20T08:10:14;100010.63;;;12.35;100.00
39887;BME280;25559;44.738;20.980;2022-11-20T08:12:45;100013.13;;;12.38;100.00
39887;BME280;25559;44.738;20.980;2022-11-20T08:15:30;100016.56;;;12.40;100.00
39887;BME280;25559;44.738;20.980;2022-11-20T08:18:02;100012.03;;;12.46;100.00
39887;BME280;25559;44.738;20.980;2022-11-20T08:20:30;100004.50;;;12.38;100.00
39887;BME280;25559;44.738;20.980;2022-11-20T08:23:02;100010.53;;;12.38;100.00
39887;BME280;25559;44.738;20.980;2022-11-20T08:25:32;100010.78;;;12.31;100.00
39887;BME280;25559;44.738;20.980;2022-11-20T08:27:59;100019.41;;;12.31;100.00
39887;BME280;25559;44.738;20.980;2022-11-20T08:30:27;100021.22;;;12.29;100.00
39887;BME280;25559;44.738;20.980;2022-11-20T08:32:59;100030.84;;;12.25;100.00
39887;BME280;25559;44.738;20.980;2022-11-20T08:35:27;100029.28;;;12.20;100.00
39887;BME280;25559;44.738;20.980;2022-11-20T08:37:54;100016.03;;;12.29;100.00
39887;BME280;25559;44.738;20.980;2022-11-20T08:40:22;99995.34;;;12.26;100.00
39887;BME280;25559;44.738;20.980;2022-11-20T08:42:49;100005.69;;;12.27;100.00
39887;BME280;25559;44.738;20.980;2022-11-20T08:45:18;100015.31;;;12.24;100.00
39887;BME280;25559;44.738;20.980;2022-11-20T08:47:45;100014.66;;;12.17;100.00
39887;BME280;25559;44.738;20.980;2022-11-20T08:50:13;100016.50;;;12.14;100.00
39887;BME280;25559;44.738;20.980;2022-11-20T08:52:41;100012.53;;;12.02;100.00
39887;BME280;25559;44.738;20.980;2022-11-20T08:55:09;100029.31;;;11.88;100.00
39887;BME280;25559;44.738;20.980;2022-11-20T08:57:37;100020.19;;;11.75;100.00
39887;BME280;25559;44.738;20.980;2022-11-20T09:00:06;100020.94;;;11.49;100.00
39887;BME280;25559;44.738;20.980;2022-11-20T09:02:34;100027.16;;;11.42;100.00
39887;BME280;25559;44.738;20.980;2022-11-20T09:05:01;100026.66;;;11.29;100.00
39887;BME280;25559;44.738;20.980;2022-11-20T09:07:29;100028.59;;;11.22;100.00
39887;BME280;25559;44.738;20.980;2022-11-20T09:09:56;100040.81;;;11.17;100.00
39887;BME280;25559;44.738;20.980;2022-11-20T09:12:23;100048.19;;;10.99;100.00
39887;BME280;25559;44.738;20.980;2022-11-20T09:14:51;100049.34;;;10.88;100.00
39887;BME280;25559;44.738;20.980;2022-11-20T09:17:18;100044.00;;;10.94;100.00
39887;BME280;25559;44.738;20.980;2022-11-20T09:19:46;100056.19;;;10.90;100.00
39887;BME280;25559;44.738;20.980;2022-11-20T09:22:13;100047.53;;;10.90;100.00
39887;BME280;25559;44.738;20.980;2022-11-20T09:24:40;100040.72;;;10.87;100.00
39887;BME280;25559;44.738;20.980;2022-11-20T09:27:08;100038.13;;;10.87;100.00
39887;BME280;25559;44.738;20.980;2022-11-20T09:29:35;100038.84;;;10.92;100.00
39887;BME280;25559;44.738;20.980;2022-11-20T09:32:04;100042.31;;;10.91;100.00
39887;BME280;25559;44.738;20.980;2022-11-20T09:34:31;100051.84;;;10.91;100.00
39887;BME280;25559;44.738;20.980;2022-11-20T09:36:58;100051.94;;;10.88;100.00
39887;BME280;25559;44.738;20.980;2022-11-20T09:39:25;100055.56;;;10.80;100.00
39887;BME280;25559;44.738;20.980;2022-11-20T09:42:03;100050.09;;;10.91;100.00
39887;BME280;25559;44.738;20.980;2022-11-20T09:44:55;100057.00;;;10.92;100.00
39887;BME280;25559;44.738;20.980;2022-11-20T09:47:34;100065.69;;;10.90;100.00
39887;BME280;25559;44.738;20.980;2022-11-20T09:50:19;100063.88;;;10.93;100.00
39887;BME280;25559;44.738;20.980;2022-11-20T09:52:55;100071.03;;;10.83;100.00
39887;BME280;25559;44.738;20.980;2022-11-20T09:55:25;100065.66;;;10.91;100.00
39887;BME280;25559;44.738;20.980;2022-11-20T09:57:55;100070.75;;;10.94;100.00
39887;BME280;25559;44.738;20.980;2022-11-20T10:00:24;100067.31;;;10.94;100.00
39887;BME280;25559;44.738;20.980;2022-11-20T10:02:58;100073.44;;;10.91;100.00
39887;BME280;25559;44.738;20.980;2022-11-20T10:05:31;100075.94;;;10.94;100.00
39887;BME280;25559;44.738;20.980;2022-11-20T10:08:09;100083.72;;;10.94;100.00
39887;BME280;25559;44.738;20.980;2022-11-20T10:10:44;100079.63;;;10.86;100.00
39887;BME280;25559;44.738;20.980;2022-11-20T10:13:20;100083.97;;;10.83;100.00
39887;BME280;25559;44.738;20.980;2022-11-20T10:15:58;100081.53;;;10.77;100.00
39887;BME280;25559;44.738;20.980;2022-11-20T10:18:42;100080.69;;;10.77;100.00
39887;BME280;25559;44.738;20.980;2022-11-20T10:21:21;100082.41;;;10.76;100.00
39887;BME280;25559;44.738;20.980;2022-11-20T10:24:02;100083.41;;;10.72;100.00
39887;BME280;25559;44.738;20.980;2022-11-20T10:26:42;100072.19;;;10.70;100.00
39887;BME280;25559;44.738;20.980;2022-11-20T10:29:12;100078.22;;;10.72;100.00
39887;BME280;25559;44.738;20.980;2022-11-20T10:31:41;100073.22;;;10.64;100.00
39887;BME280;25559;44.738;20.980;2022-11-20T10:34:19;100079.94;;;10.72;100.00
39887;BME280;25559;44.738;20.980;2022-11-20T10:36:51;100067.88;;;10.71;100.00
39887;BME280;25559;44.738;20.980;2022-11-20T10:39:24;100072.13;;;10.73;100.00
39887;BME280;25559;44.738;20.980;2022-11-20T10:41:53;100068.84;;;10.66;100.00
39887;BME280;25559;44.738;20.980;2022-11-20T10:44:22;100074.88;;;10.67;100.00
39887;BME280;25559;44.738;20.980;2022-11-20T10:47:12;100071.97;;;10.79;100.00
39887;BME280;25559;44.738;20.980;2022-11-20T10:49:45;100068.50;;;10.80;100.00
39887;BME280;25559;44.738;20.980;2022-11-20T10:52:21;100065.41;;;10.66;100.00
39887;BME280;25559;44.738;20.980;2022-11-20T10:54:56;100074.94;;;10.64;100.00
39887;BME280;25559;44.738;20.980;2022-11-20T10:57:38;100082.00;;;10.57;100.00
39887;BME280;25559;44.738;20.980;2022-11-20T11:00:12;100082.09;;;10.54;100.00
39887;BME280;25559;44.738;20.980;2022-11-20T11:02:42;100085.66;;;10.48;100.00
39887;BME280;25559;44.738;20.980;2022-11-20T11:05:25;100092.53;;;10.51;100.00
39887;BME280;25559;44.738;20.980;2022-11-20T11:07:58;100091.88;;;10.40;100.00
39887;BME280;25559;44.738;20.980;2022-11-20T11:10:31;100101.41;;;10.39;100.00
39887;BME280;25559;44.738;20.980;2022-11-20T11:13:00;100097.06;;;10.40;100.00
39887;BME280;25559;44.738;20.980;2022-11-20T11:15:29;100087.72;;;10.32;100.00
39887;BME280;25559;44.738;20.980;2022-11-20T11:17:57;100083.50;;;10.28;100.00
39887;BME280;25559;44.738;20.980;2022-11-20T11:20:25;100084.44;;;10.24;100.00
39887;BME280;25559;44.738;20.980;2022-11-20T11:22:54;100075.75;;;10.27;100.00
39887;BME280;25559;44.738;20.980;2022-11-20T11:25:25;100081.88;;;10.23;100.00
39887;BME280;25559;44.738;20.980;2022-11-20T11:27:53;100074.88;;;10.28;100.00
39887;BME280;25559;44.738;20.980;2022-11-20T11:30:23;100077.31;;;10.36;100.00
39887;BME280;25559;44.738;20.980;2022-11-20T11:33:02;100074.19;;;10.20;100.00
39887;BME280;25559;44.738;20.980;2022-11-20T11:35:31;100076.06;;;10.13;100.00
39887;BME280;25559;44.738;20.980;2022-11-20T11:38:04;100075.19;;;10.12;100.00
39887;BME280;25559;44.738;20.980;2022-11-20T11:40:34;100074.44;;;10.07;100.00
39887;BME280;25559;44.738;20.980;2022-11-20T11:43:05;100077.28;;;9.95;100.00
39887;BME280;25559;44.738;20.980;2022-11-20T11:45:54;100073.72;;;10.01;100.00
39887;BME280;25559;44.738;20.980;2022-11-20T11:48:20;100078.94;;;9.99;100.00
39887;BME280;25559;44.738;20.980;2022-11-20T11:50:50;100092.63;;;10.04;100.00
39887;BME280;25559;44.738;20.980;2022-11-20T11:53:18;100085.28;;;9.84;100.00
39887;BME280;25559;44.738;20.980;2022-11-20T11:55:50;100091.53;;;9.72;100.00
39887;BME280;25559;44.738;20.980;2022-11-20T11:58:33;100094.13;;;9.72;100.00
39887;BME280;25559;44.738;20.980;2022-11-20T12:01:04;100095.16;;;9.64;100.00
39887;BME280;25559;44.738;20.980;2022-11-20T12:03:36;100093.44;;;9.64;100.00
39887;BME280;25559;44.738;20.980;2022-11-20T12:06:10;100090.09;;;9.57;100.00
39887;BME280;25559;44.738;20.980;2022-11-20T12:08:43;100092.00;;;9.48;100.00
39887;BME280;25559;44.738;20.980;2022-11-20T12:11:15;100096.25;;;9.50;100.00
39887;BME280;25559;44.738;20.980;2022-11-20T12:13:48;100105.88;;;9.43;100.00
39887;BME280;25559;44.738;20.980;2022-11-20T12:16:20;100105.94;;;9.39;100.00
39887;BME280;25559;44.738;20.980;2022-11-20T12:18:49;100110.97;;;9.47;100.00
39887;BME280;25559;44.738;20.980;2022-11-20T12:21:30;100118.75;;;9.47;100.00
39887;BME280;25559;44.738;20.980;2022-11-20T12:24:23;100132.69;;;9.36;100.00
39887;BME280;25559;44.738;20.980;2022-11-20T12:27:05;100133.63;;;9.34;100.00
39887;BME280;25559;44.738;20.980;2022-11-20T12:29:43;100137.13;;;9.31;100.00
39887;BME280;25559;44.738;20.980;2022-11-20T12:33:01;100127.72;;;9.25;100.00
39887;BME280;25559;44.738;20.980;2022-11-20T12:35:50;100136.34;;;9.24;100.00
39887;BME280;25559;44.738;20.980;2022-11-20T12:38:45;100138.97;;;9.21;100.00
39887;BME280;25559;44.738;20.980;2022-11-20T12:41:24;100139.97;;;9.14;100.00
39887;BME280;25559;44.738;20.980;2022-11-20T12:44:19;100142.50;;;9.19;100.00
39887;BME280;25559;44.738;20.980;2022-11-20T12:47:17;100144.44;;;9.04;100.00
39887;BME280;25559;44.738;20.980;2022-11-20T12:49:55;100155.78;;;8.94;100.00
39887;BME280;25559;44.738;20.980;2022-11-20T12:52:38;100157.69;;;8.81;100.00